Time;durP1;ratioP1;P1;durP2;ratioP2;P2;SDS_P1;SDS_P2;PMS_P1;PMS_P2;Temp;Humidity;BMP_temperature;BMP_pressure;BME280_temperature;BME280_humidity;BME280_pressure;Samples;Min_cycle;Max_cycle;Signal;HPM_P1;HPM_P2
2023/07/30 00:00:31;;;;;;;7.17;3.40;;;;;;;21.79;100.00;101022.88;2521242;23;20151;-63
2023/07/30 00:01:32;;;;;;;6.27;3.63;;;;;;;21.48;100.00;100966.44;2508573;23;20156;-63
2023/07/30 00:02:33;;;;;;;6.13;3.00;;;;;;;21.84;100.00;101016.53;2508519;23;20160;-63
2023/07/30 00:03:33;;;;;;;5.27;2.83;;;;;;;21.84;100.00;101024.97;2521231;23;20637;-63
2023/07/30 00:04:33;;;;;;;3.70;2.87;;;;;;;21.82;100.00;101023.94;2521305;23;20151;-63
2023/07/30 00:05:34;;;;;;;6.23;3.20;;;;;;;21.49;100.00;100970.78;2521206;23;20182;-63
2023/07/30 00:06:34;;;;;;;5.63;3.50;;;;;;;21.81;100.00;101020.31;2521337;23;20205;-63
2023/07/30 00:07:35;;;;;;;5.23;3.10;;;;;;;21.75;100.00;101010.28;2521120;23;20159;-63
2023/07/30 00:08:35;;;;;;;4.20;2.87;;;;;;;21.18;100.00;100922.06;2520812;23;20183;-63
2023/07/30 00:09:35;;;;;;;5.03;3.07;;;;;;;21.82;100.00;101015.47;2521267;23;20163;-63
2023/07/30 00:10:36;;;;;;;4.47;2.80;;;;;;;21.82;100.00;101018.28;2520722;23;20190;-63
2023/07/30 00:11:37;;;;;;;4.13;2.70;;;;;;;21.84;100.00;101012.91;2508122;23;20163;-63
2023/07/30 00:12:37;;;;;;;4.77;2.83;;;;;;;21.85;100.00;101011.66;2508355;23;20188;-63
2023/07/30 00:13:38;;;;;;;4.03;2.90;;;;;;;21.85;100.00;101020.88;2520831;23;20479;-63
2023/07/30 00:14:38;;;;;;;7.70;3.20;;;;;;;21.86;100.00;101016.78;2520902;23;20155;-63
2023/07/30 00:15:38;;;;;;;5.80;2.90;;;;;;;21.88;100.00;101017.06;2521213;23;20177;-63
2023/07/30 00:16:39;;;;;;;4.20;2.90;;;;;;;21.82;100.00;101010.63;2521017;23;20537;-63
2023/07/30 00:17:39;;;;;;;5.60;2.70;;;;;;;21.88;100.00;101019.09;2520941;23;20470;-63
2023/07/30 00:18:40;;;;;;;4.97;2.60;;;;;;;21.82;100.00;101012.66;2521124;23;20179;-63
2023/07/30 00:19:40;;;;;;;6.40;2.70;;;;;;;21.76;100.00;101006.19;2521385;23;20191;-64
2023/07/30 00:20:41;;;;;;;3.57;2.67;;;;;;;21.84;100.00;101015.72;2520838;23;20151;-63
2023/07/30 00:21:45;;;;;;;6.70;2.93;;;;;;;21.60;100.00;100979.34;2521155;23;20151;-63
2023/07/30 00:22:46;;;;;;;5.67;3.03;;;;;;;21.92;100.00;101028.13;2520992;23;20164;-63
2023/07/30 00:23:46;;;;;;;7.87;3.50;;;;;;;21.95;100.00;101024.31;2520928;23;20171;-63
2023/07/30 00:24:47;;;;;;;5.53;3.00;;;;;;;21.94;100.00;101026.34;2521196;23;20294;-63
2023/07/30 00:25:47;;;;;;;6.77;2.80;;;;;;;21.94;100.00;101032.00;2521327;23;20471;-64
2023/07/30 00:26:47;;;;;;;7.23;2.90;;;;;;;21.93;100.00;101022.00;2521089;23;20159;-63
2023/07/30 00:27:48;;;;;;;6.50;2.77;;;;;;;21.89;100.00;101027.06;2520989;23;20159;-63
2023/07/30 00:28:49;;;;;;;8.50;3.07;;;;;;;21.90;100.00;101025.81;2521395;23;20186;-63
2023/07/30 00:29:49;;;;;;;5.37;2.80;;;;;;;21.91;100.00;101026.59;2521197;23;20242;-63
2023/07/30 00:30:49;;;;;;;7.30;2.77;;;;;;;21.36;100.00;100938.63;2520992;23;20617;-63
2023/07/30 00:31:50;;;;;;;4.60;3.10;;;;;;;21.90;100.00;101013.75;2521222;23;20677;-63
2023/07/30 00:32:50;;;;;;;5.03;2.40;;;;;;;21.85;100.00;101006.03;2520815;23;20182;-64
2023/07/30 00:33:51;;;;;;;5.87;3.00;;;;;;;21.91;100.00;101016.06;2521168;23;20182;-63
2023/07/30 00:34:51;;;;;;;6.40;2.53;;;;;;;21.90;100.00;101017.34;2520835;23;20151;-63
2023/07/30 00:35:52;;;;;;;3.67;2.53;;;;;;;21.88;100.00;101019.09;2521155;23;20214;-63
2023/07/30 00:36:52;;;;;;;4.17;2.53;;;;;;;21.85;100.00;101017.31;2521028;23;20170;-62
2023/07/30 00:37:53;;;;;;;5.00;2.70;;;;;;;21.30;100.00;100935.00;2520783;23;20179;-63
2023/07/30 00:38:53;;;;;;;5.67;2.67;;;;;;;21.20;100.00;100927.97;2521108;23;20202;-63
2023/07/30 00:39:54;;;;;;;3.57;2.70;;;;;;;21.84;100.00;101027.81;2521078;23;20577;-63
2023/07/30 00:40:55;;;;;;;5.00;2.57;;;;;;;21.85;100.00;101029.34;2520559;23;20508;-63
2023/07/30 00:41:55;;;;;;;5.57;3.00;;;;;;;21.76;100.00;101026.72;2520646;23;20150;-63
2023/07/30 00:42:56;;;;;;;4.10;2.80;;;;;;;21.13;100.00;100946.09;2520536;23;20155;-63
2023/07/30 00:43:56;;;;;;;4.20;2.77;;;;;;;21.77;100.00;101030.31;2520989;23;20158;-63
2023/07/30 00:44:57;;;;;;;4.17;2.60;;;;;;;21.69;100.00;101027.16;2520673;23;20147;-63
2023/07/30 00:45:57;;;;;;;5.37;3.10;;;;;;;21.49;100.00;101009.50;2520678;23;20230;-63
2023/07/30 00:46:58;;;;;;;3.40;2.60;;;;;;;21.56;100.00;101020.34;2520798;23;20155;-63
2023/07/30 00:47:58;;;;;;;4.60;2.87;;;;;;;21.15;100.00;100968.16;2507915;23;20736;-63
2023/07/30 00:48:59;;;;;;;4.63;2.60;;;;;;;20.70;100.00;100915.38;2508329;23;20718;-63
2023/07/30 00:50:01;;;;;;;4.33;2.80;;;;;;;21.41;100.00;101022.50;2520869;23;20673;-63
2023/07/30 00:51:01;;;;;;;6.00;3.00;;;;;;;21.32;100.00;101022.66;2520178;23;20560;-63
2023/07/30 00:52:03;;;;;;;4.43;3.10;;;;;;;21.22;100.00;101012.81;2520708;23;20155;-63
2023/07/30 00:53:04;;;;;;;4.10;2.77;;;;;;;20.84;100.00;100968.81;2508252;23;20227;-63
2023/07/30 00:54:05;;;;;;;6.50;3.10;;;;;;;20.85;100.00;100973.19;2508386;23;20204;-63
2023/07/30 00:55:07;;;;;;;4.27;3.10;;;;;;;21.03;100.00;101025.66;2508871;23;20235;-63
2023/07/30 00:56:07;;;;;;;5.47;3.00;;;;;;;21.03;100.00;101022.84;2508863;23;20179;-63
2023/07/30 00:57:10;;;;;;;4.23;2.67;;;;;;;20.71;100.00;100976.84;2508674;23;20155;-63
2023/07/30 00:58:11;;;;;;;4.37;2.90;;;;;;;21.01;100.00;101020.53;2508959;23;20144;-63
2023/07/30 00:59:11;;;;;;;4.57;2.73;;;;;;;20.88;100.00;100997.53;2509179;23;20151;-63
2023/07/30 01:00:12;;;;;;;3.67;2.83;;;;;;;20.96;100.00;101012.78;2508825;23;20399;-63
2023/07/30 01:01:13;;;;;;;5.40;3.20;;;;;;;20.82;100.00;100993.13;2508606;23;20162;-63
2023/07/30 01:02:13;;;;;;;5.40;3.00;;;;;;;20.58;100.00;100950.31;2508726;23;20187;-63
2023/07/30 01:03:14;;;;;;;4.07;3.00;;;;;;;20.97;100.00;101016.34;2508729;23;20195;-64
2023/07/30 01:04:15;;;;;;;4.63;2.83;;;;;;;20.98;100.00;101015.09;2509066;23;20156;-63
2023/07/30 01:05:15;;;;;;;5.70;3.10;;;;;;;21.02;100.00;101015.66;2508730;23;20519;-63
2023/07/30 01:06:16;;;;;;;5.87;2.77;;;;;;;20.32;100.00;100913.63;2508831;23;20420;-63
2023/07/30 01:07:16;;;;;;;4.80;3.23;;;;;;;21.02;100.00;101012.81;2508706;23;20156;-63
2023/07/30 01:08:17;;;;;;;4.33;3.30;;;;;;;21.04;100.00;101024.41;2508858;23;20537;-63
2023/07/30 01:09:17;;;;;;;5.93;3.00;;;;;;;21.03;100.00;101017.22;2507571;23;20553;-64
2023/07/30 01:10:18;;;;;;;5.87;3.33;;;;;;;21.03;100.00;101015.16;2507730;23;20231;-63
2023/07/30 01:11:20;;;;;;;6.53;3.30;;;;;;;20.40;100.00;100920.41;2507757;23;20182;-63
2023/07/30 01:12:21;;;;;;;7.90;3.70;;;;;;;21.02;100.00;101018.47;2508813;23;20479;-63
2023/07/30 01:13:22;;;;;;;7.30;3.93;;;;;;;21.00;100.00;101016.16;2508707;23;20467;-63
2023/07/30 01:14:23;;;;;;;5.03;3.30;;;;;;;21.00;100.00;101013.34;2508539;23;20171;-63
2023/07/30 01:15:23;;;;;;;5.27;3.60;;;;;;;21.02;100.00;101012.81;2508481;23;20482;-63
2023/07/30 01:16:24;;;;;;;6.60;3.30;;;;;;;21.01;100.00;101016.91;2508890;23;20565;-64
2023/07/30 01:17:25;;;;;;;6.83;3.30;;;;;;;20.93;100.00;101013.75;2508437;23;20160;-63
2023/07/30 01:18:25;;;;;;;5.33;3.63;;;;;;;20.99;100.00;101016.66;2508717;23;20263;-63
2023/07/30 01:19:25;;;;;;;7.97;3.80;;;;;;;20.99;100.00;101013.84;2508458;23;20243;-63
2023/07/30 01:20:31;;;;;;;4.67;3.60;;;;;;;20.47;100.00;100950.19;2508333;23;20183;-63
2023/07/30 01:21:35;;;;;;;4.93;3.83;;;;;;;20.92;100.00;101014.25;2508557;23;20677;-63
2023/07/30 01:22:36;;;;;;;4.60;3.57;;;;;;;20.81;100.00;101014.09;2508605;23;20388;-63
2023/07/30 01:23:36;;;;;;;9.67;4.10;;;;;;;20.81;100.00;101017.69;2508401;23;20526;-63
2023/07/30 01:24:37;;;;;;;15.83;4.30;;;;;;;20.69;100.00;101016.00;2508282;23;20155;-63
2023/07/30 01:25:38;;;;;;;13.20;3.83;;;;;;;20.09;100.00;100939.94;2508571;23;20231;-64
2023/07/30 01:26:48;;;;;;;13.43;4.10;;;;;;;20.40;100.00;100995.63;2508594;23;20159;-63
2023/07/30 01:27:54;;;;;;;10.37;4.00;;;;;;;20.55;100.00;101018.88;2508473;23;20384;-63
2023/07/30 01:28:57;;;;;;;8.80;3.70;;;;;;;20.53;100.00;101019.34;2508367;23;20403;-63
2023/07/30 01:30:10;;;;;;;6.93;3.70;;;;;;;20.49;100.00;101018.00;2508815;23;20194;-63
2023/07/30 01:31:15;;;;;;;5.83;4.17;;;;;;;20.46;100.00;101021.81;2508262;23;20479;-63
2023/07/30 01:32:19;;;;;;;6.17;4.00;;;;;;;19.77;100.00;100926.13;2508498;23;20383;-63
2023/07/30 01:33:19;;;;;;;5.67;3.63;;;;;;;19.97;100.00;100960.72;2507616;23;20396;-63
2023/07/30 01:34:20;;;;;;;6.77;3.93;;;;;;;20.34;100.00;101025.72;2507601;23;20749;-63
2023/07/30 01:35:25;;;;;;;7.67;4.10;;;;;;;20.30;100.00;101022.34;2508358;23;20662;-63
2023/07/30 01:36:27;;;;;;;7.13;4.10;;;;;;;20.33;100.00;101024.19;2508371;23;20462;-63
2023/07/30 01:37:29;;;;;;;13.00;4.30;;;;;;;20.30;100.00;101025.94;2508419;23;20933;-63
2023/07/30 01:38:30;;;;;;;5.27;3.80;;;;;;;19.89;100.00;100953.13;2508693;23;20471;-64
2023/07/30 01:39:33;;;;;;;7.00;3.83;;;;;;;19.87;100.00;100950.06;2508805;23;20391;-63
2023/07/30 01:40:33;;;;;;;6.57;3.60;;;;;;;20.32;100.00;101025.47;2508891;23;20505;-63
2023/07/30 01:41:34;;;;;;;9.60;3.97;;;;;;;20.33;100.00;101024.19;2509322;23;20380;-63
2023/07/30 01:42:34;;;;;;;5.30;3.57;;;;;;;20.26;100.00;101016.91;2507933;23;20159;-63
2023/07/30 01:43:35;;;;;;;5.60;3.60;;;;;;;20.06;100.00;101007.63;2508245;23;20192;-63
2023/07/30 01:44:35;;;;;;;8.13;4.10;;;;;;;20.07;100.00;101007.16;2508878;23;20175;-63
2023/07/30 01:45:36;;;;;;;6.40;3.83;;;;;;;20.17;100.00;101031.09;2509184;23;20246;-63
2023/07/30 01:46:36;;;;;;;6.50;4.00;;;;;;;20.16;100.00;101028.81;2508760;23;20155;-63
2023/07/30 01:47:37;;;;;;;6.97;4.10;;;;;;;19.78;100.00;100979.06;2508600;23;20163;-63
2023/07/30 01:48:37;;;;;;;7.60;3.87;;;;;;;20.09;100.00;101037.63;2509112;23;20181;-63
2023/07/30 01:49:38;;;;;;;5.70;3.80;;;;;;;20.09;100.00;101035.59;2508268;23;20214;-63
2023/07/30 01:50:38;;;;;;;5.47;3.70;;;;;;;19.69;100.00;100978.38;2508305;23;20649;-63
2023/07/30 01:51:38;;;;;;;5.23;3.90;;;;;;;20.08;100.00;101033.25;2508879;23;20219;-63
2023/07/30 01:52:39;;;;;;;4.57;3.63;;;;;;;20.10;100.00;101034.31;2511201;23;20186;-63
2023/07/30 01:53:39;;;;;;;4.73;3.40;;;;;;;20.04;100.00;101032.66;2520505;23;20498;-63
2023/07/30 01:54:39;;;;;;;5.40;3.77;;;;;;;19.58;100.00;100959.31;2520542;23;20582;-63
2023/07/30 01:55:43;;;;;;;6.33;3.60;;;;;;;20.09;100.00;101032.78;2520573;23;20178;-63
2023/07/30 01:56:43;;;;;;;5.53;3.40;;;;;;;19.69;100.00;100961.50;2520583;23;20205;-63
2023/07/30 01:57:44;;;;;;;4.37;3.27;;;;;;;20.13;100.00;101032.56;2520551;23;20442;-63
2023/07/30 01:58:44;;;;;;;4.37;2.90;;;;;;;19.70;100.00;100966.66;2520699;23;20156;-63
2023/07/30 01:59:45;;;;;;;5.07;3.40;;;;;;;20.07;100.00;101026.06;2520361;23;20198;-63
2023/07/30 02:00:45;;;;;;;4.90;3.47;;;;;;;20.13;100.00;101035.38;2520376;23;20154;-63
2023/07/30 02:01:46;;;;;;;4.90;3.53;;;;;;;20.14;100.00;101036.94;2520941;23;20155;-63
2023/07/30 02:02:46;;;;;;;5.03;3.90;;;;;;;20.14;100.00;101032.09;2520315;23;20213;-63
2023/07/30 02:03:46;;;;;;;4.67;3.40;;;;;;;20.11;100.00;101040.75;2520633;23;20624;-63
2023/07/30 02:04:47;;;;;;;4.87;3.67;;;;;;;20.16;100.00;101042.88;2508095;23;20512;-63
2023/07/30 02:05:47;;;;;;;5.60;3.50;;;;;;;20.17;100.00;101044.41;2507917;23;20503;-63
2023/07/30 02:06:48;;;;;;;4.87;3.67;;;;;;;20.16;100.00;101040.81;2520379;23;20159;-63
2023/07/30 02:07:48;;;;;;;5.77;3.67;;;;;;;20.10;100.00;101045.59;2520729;23;20189;-63
2023/07/30 02:08:49;;;;;;;6.67;3.70;;;;;;;19.40;100.00;100934.19;2520441;23;20153;-63
2023/07/30 02:09:49;;;;;;;4.23;3.53;;;;;;;20.11;100.00;101041.50;2520589;23;20159;-63
2023/07/30 02:10:57;;;;;;;8.53;3.53;;;;;;;19.98;100.00;101034.59;2520315;23;20178;-63
2023/07/30 02:11:57;;;;;;;7.20;4.10;;;;;;;20.08;100.00;101045.31;2520799;23;20173;-63
2023/07/30 02:12:57;;;;;;;5.47;3.60;;;;;;;20.10;100.00;101039.16;2520595;23;20379;-63
2023/07/30 02:13:58;;;;;;;8.43;3.70;;;;;;;20.11;100.00;101035.13;2520642;23;20636;-63
2023/07/30 02:14:58;;;;;;;7.37;3.83;;;;;;;20.13;100.00;101047.44;2520338;23;20178;-63
2023/07/30 02:15:58;;;;;;;7.50;3.80;;;;;;;20.18;100.00;101041.13;2520505;23;20257;-63
2023/07/30 02:16:59;;;;;;;8.40;3.90;;;;;;;20.21;100.00;101045.75;2520253;23;20515;-63
2023/07/30 02:17:59;;;;;;;7.53;3.90;;;;;;;20.23;100.00;101046.06;2508053;23;20562;-63
2023/07/30 02:19:00;;;;;;;8.37;3.90;;;;;;;20.24;100.00;101049.63;2507964;23;20716;-63
2023/07/30 02:20:00;;;;;;;8.63;3.77;;;;;;;20.27;100.00;101048.66;2520523;23;20597;-63
2023/07/30 02:21:00;;;;;;;6.03;3.53;;;;;;;20.03;100.00;100998.13;2520478;23;20233;-63
2023/07/30 02:22:01;;;;;;;6.77;3.57;;;;;;;20.34;100.00;101043.41;2520567;23;20620;-63
2023/07/30 02:23:01;;;;;;;7.03;3.53;;;;;;;20.40;100.00;101037.84;2520405;23;20504;-63
2023/07/30 02:24:02;;;;;;;7.40;3.97;;;;;;;20.41;100.00;101045.03;2520526;23;20189;-63
2023/07/30 02:25:03;;;;;;;4.73;3.60;;;;;;;20.41;100.00;101034.53;2520697;23;20159;-64
2023/07/30 02:26:03;;;;;;;4.10;3.50;;;;;;;20.42;100.00;101038.16;2520530;23;20234;-63
2023/07/30 02:27:04;;;;;;;4.77;3.13;;;;;;;20.43;100.00;101042.50;2520546;23;20197;-63
2023/07/30 02:28:05;;;;;;;5.20;3.30;;;;;;;20.40;100.00;101041.44;2520163;23;20154;-63
2023/07/30 02:29:05;;;;;;;4.87;3.33;;;;;;;19.91;100.00;100971.06;2520526;23;20230;-63
2023/07/30 02:30:06;;;;;;;6.10;3.43;;;;;;;20.42;100.00;101043.78;2520972;23;20155;-64
2023/07/30 02:31:07;;;;;;;5.50;3.50;;;;;;;20.33;100.00;101030.59;2507424;23;20522;-63
2023/07/30 02:32:07;;;;;;;4.77;3.40;;;;;;;20.43;100.00;101037.66;2508228;23;20188;-63
2023/07/30 02:33:08;;;;;;;5.23;3.00;;;;;;;20.43;100.00;101037.66;2520722;23;20218;-63
2023/07/30 02:34:08;;;;;;;5.67;3.40;;;;;;;20.39;100.00;101039.91;2520279;23;20242;-63
2023/07/30 02:35:09;;;;;;;6.03;3.20;;;;;;;20.37;100.00;101039.59;2507629;23;20583;-63
2023/07/30 02:36:09;;;;;;;5.43;3.40;;;;;;;20.39;100.00;101037.09;2507711;23;20156;-63
2023/07/30 02:37:10;;;;;;;4.83;3.43;;;;;;;20.35;100.00;101033.69;2520409;23;20151;-63
2023/07/30 02:38:10;;;;;;;7.23;3.33;;;;;;;20.32;100.00;101037.47;2520435;23;20610;-64
2023/07/30 02:39:10;;;;;;;8.47;3.60;;;;;;;20.23;100.00;101019.94;2520179;23;20166;-63
2023/07/30 02:40:11;;;;;;;6.13;3.30;;;;;;;20.06;100.00;100988.69;2520358;23;20152;-63
2023/07/30 02:41:12;;;;;;;6.23;3.33;;;;;;;20.01;100.00;100985.81;2520793;23;20147;-63
2023/07/30 02:42:12;;;;;;;8.23;3.33;;;;;;;20.14;100.00;101008.78;2520213;23;20155;-64
2023/07/30 02:43:12;;;;;;;10.03;3.67;;;;;;;20.45;100.00;101032.31;2520182;23;20781;-63
2023/07/30 02:44:13;;;;;;;8.63;3.60;;;;;;;20.47;100.00;101038.19;2519947;23;20552;-63
2023/07/30 02:45:13;;;;;;;6.60;3.60;;;;;;;20.49;100.00;101038.50;2507359;23;20612;-63
2023/07/30 02:46:14;;;;;;;8.30;3.80;;;;;;;20.31;100.00;101015.47;2507264;23;20547;-63
2023/07/30 02:47:14;;;;;;;11.07;3.40;;;;;;;20.45;100.00;101039.97;2520128;23;20156;-63
2023/07/30 02:48:14;;;;;;;11.60;3.83;;;;;;;20.32;100.00;101017.78;2519939;23;20161;-63
2023/07/30 02:49:15;;;;;;;15.90;4.07;;;;;;;20.45;100.00;101039.97;2520271;23;20152;-64
2023/07/30 02:50:15;;;;;;;15.40;3.47;;;;;;;20.47;100.00;101038.19;2520041;23;20154;-63
2023/07/30 02:51:16;;;;;;;5.20;3.17;;;;;;;20.13;100.00;100979.91;2519906;23;20164;-63
2023/07/30 02:52:16;;;;;;;7.57;2.80;;;;;;;20.39;100.00;101022.22;2520469;23;20175;-63
2023/07/30 02:53:16;;;;;;;5.27;3.33;;;;;;;20.48;100.00;101039.78;2520136;23;20195;-64
2023/07/30 02:54:17;;;;;;;5.57;3.03;;;;;;;20.50;100.00;101045.69;2520378;23;20177;-63
2023/07/30 02:55:18;;;;;;;5.70;3.20;;;;;;;20.53;100.00;101041.88;2520361;23;20502;-63
2023/07/30 02:56:18;;;;;;;6.10;3.00;;;;;;;20.49;100.00;101043.34;2519117;23;20159;-64
2023/07/30 02:57:19;;;;;;;7.30;3.63;;;;;;;20.26;100.00;101016.16;2519017;23;20462;-64
2023/07/30 02:58:19;;;;;;;5.10;3.10;;;;;;;20.48;100.00;101033.38;2519939;23;20158;-63
2023/07/30 02:59:19;;;;;;;6.83;3.33;;;;;;;20.55;100.00;101047.81;2519820;23;20187;-63
2023/07/30 03:00:20;;;;;;;13.13;4.33;;;;;;;20.48;100.00;101039.78;2507134;23;20678;-63
2023/07/30 03:01:20;;;;;;;9.90;3.40;;;;;;;20.50;100.00;101048.50;2507316;23;20669;-63
2023/07/30 03:02:21;;;;;;;7.33;3.27;;;;;;;20.50;100.00;101044.91;2520214;23;20242;-63
2023/07/30 03:03:21;;;;;;;7.67;3.67;;;;;;;20.46;100.00;101056.38;2519912;23;20189;-63
2023/07/30 03:04:22;;;;;;;5.90;3.20;;;;;;;20.46;100.00;101055.63;2520007;23;20159;-63
2023/07/30 03:05:22;;;;;;;7.33;3.10;;;;;;;20.44;100.00;101052.50;2520022;23;20175;-63
2023/07/30 03:06:22;;;;;;;4.87;2.83;;;;;;;20.38;100.00;101046.81;2520182;23;20290;-63
2023/07/30 03:07:23;;;;;;;6.03;2.87;;;;;;;20.31;100.00;101038.00;2520017;23;20159;-63
2023/07/30 03:08:23;;;;;;;3.70;2.67;;;;;;;20.35;100.00;101044.16;2519887;23;20230;-63
2023/07/30 03:09:23;;;;;;;6.57;3.23;;;;;;;20.34;100.00;101048.25;2519981;23;20155;-63
2023/07/30 03:10:24;;;;;;;6.27;3.30;;;;;;;20.22;100.00;101029.66;2519750;23;20158;-63
2023/07/30 03:11:24;;;;;;;7.13;2.70;;;;;;;20.31;100.00;101041.56;2520050;23;20151;-63
2023/07/30 03:12:25;;;;;;;6.73;3.13;;;;;;;20.30;100.00;101050.47;2520079;23;20218;-63
2023/07/30 03:13:26;;;;;;;5.73;3.07;;;;;;;20.26;100.00;101036.63;2520227;23;20235;-63
2023/07/30 03:14:26;;;;;;;5.83;3.23;;;;;;;20.31;100.00;101049.25;2519917;23;20154;-64
2023/07/30 03:15:27;;;;;;;4.80;3.20;;;;;;;19.91;100.00;100993.56;2520087;23;20407;-64
2023/07/30 03:16:27;;;;;;;6.13;3.20;;;;;;;20.34;100.00;101056.69;2519872;23;20162;-63
2023/07/30 03:17:28;;;;;;;5.60;3.50;;;;;;;20.31;100.00;101046.44;2520383;23;20229;-64
2023/07/30 03:18:28;;;;;;;6.87;3.30;;;;;;;20.29;100.00;101049.72;2520068;23;20155;-63
2023/07/30 03:19:28;;;;;;;5.73;2.93;;;;;;;20.28;100.00;101055.84;2519978;23;20166;-63
2023/07/30 03:20:29;;;;;;;5.37;3.40;;;;;;;20.02;100.00;101013.47;2520010;23;20158;-63
2023/07/30 03:21:29;;;;;;;6.27;3.37;;;;;;;19.94;100.00;101005.91;2519996;23;20158;-63
2023/07/30 03:22:30;;;;;;;6.10;3.53;;;;;;;20.25;100.00;101059.63;2520196;23;20226;-63
2023/07/30 03:23:31;;;;;;;8.30;3.60;;;;;;;19.91;100.00;101006.88;2519959;23;20183;-63
2023/07/30 03:24:31;;;;;;;7.50;3.50;;;;;;;20.19;100.00;101055.94;2519767;23;20161;-63
2023/07/30 03:25:32;;;;;;;4.97;2.90;;;;;;;19.57;100.00;100966.19;2520311;23;20623;-64
2023/07/30 03:26:32;;;;;;;7.70;3.40;;;;;;;19.74;100.00;101000.97;2519919;23;20155;-63
2023/07/30 03:27:33;;;;;;;6.00;3.33;;;;;;;19.74;100.00;100995.34;2519790;23;20222;-63
2023/07/30 03:28:33;;;;;;;5.17;3.60;;;;;;;20.07;100.00;101049.34;2519826;23;20155;-64
2023/07/30 03:29:33;;;;;;;5.93;3.30;;;;;;;19.95;100.00;101053.22;2520126;23;20624;-63
2023/07/30 03:30:34;;;;;;;9.30;3.43;;;;;;;19.98;100.00;101051.47;2519719;23;20599;-64
2023/07/30 03:31:35;;;;;;;5.17;3.40;;;;;;;19.87;100.00;101043.66;2519692;23;20156;-63
2023/07/30 03:32:35;;;;;;;5.97;3.27;;;;;;;19.87;100.00;101045.69;2519683;23;20158;-63
2023/07/30 03:33:36;;;;;;;6.47;3.50;;;;;;;19.88;100.00;101047.22;2519925;23;20262;-64
2023/07/30 03:34:36;;;;;;;5.20;3.30;;;;;;;19.88;100.00;101044.41;2519913;23;20155;-64
2023/07/30 03:35:37;;;;;;;5.27;3.33;;;;;;;19.33;100.00;100959.88;2519839;23;20473;-64
2023/07/30 03:36:37;;;;;;;4.57;3.13;;;;;;;19.96;100.00;101054.03;2519819;23;20498;-63
2023/07/30 03:37:37;;;;;;;5.13;3.50;;;;;;;19.97;100.00;101044.31;2519572;23;20153;-63
2023/07/30 03:38:38;;;;;;;6.13;3.50;;;;;;;19.55;100.00;100982.00;2519954;23;20226;-63
2023/07/30 03:39:39;;;;;;;8.83;3.50;;;;;;;19.50;100.00;100972.19;2519988;23;20237;-63
2023/07/30 03:40:39;;;;;;;5.67;3.83;;;;;;;20.04;100.00;101055.16;2520088;23;20155;-63
2023/07/30 03:41:39;;;;;;;7.47;3.50;;;;;;;20.03;100.00;101050.78;2520830;23;20629;-63
2023/07/30 03:42:40;;;;;;;8.60;3.37;;;;;;;20.08;100.00;101052.97;2520431;23;20656;-63
2023/07/30 03:43:40;;;;;;;5.27;3.47;;;;;;;20.09;100.00;101052.47;2520448;23;20656;-64
2023/07/30 03:44:41;;;;;;;4.77;3.00;;;;;;;20.11;100.00;101055.56;2520467;23;20245;-63
2023/07/30 03:45:41;;;;;;;6.17;3.40;;;;;;;20.12;100.00;101062.75;2520681;23;20210;-63
2023/07/30 03:46:44;;;;;;;11.73;4.70;;;;;;;20.12;100.00;101057.13;2520430;23;20237;-63
2023/07/30 03:47:44;;;;;;;11.23;4.00;;;;;;;20.08;100.00;101056.56;2520150;23;20637;-63
2023/07/30 03:48:44;;;;;;;8.27;3.67;;;;;;;20.06;100.00;101061.09;2520482;23;20746;-63
2023/07/30 03:49:45;;;;;;;6.83;3.83;;;;;;;20.07;100.00;101057.78;2520391;23;20165;-63
2023/07/30 03:50:45;;;;;;;8.60;4.30;;;;;;;20.10;100.00;101056.84;2519980;23;20494;-63
2023/07/30 03:51:47;;;;;;;6.37;3.60;;;;;;;20.08;100.00;101061.41;2520187;23;20553;-63
2023/07/30 03:52:47;;;;;;;7.90;3.80;;;;;;;20.07;100.00;101060.59;2519894;23;20421;-63
2023/07/30 03:53:48;;;;;;;5.70;3.33;;;;;;;20.07;100.00;101062.63;2520239;23;20375;-63
2023/07/30 03:54:48;;;;;;;6.50;3.70;;;;;;;20.08;100.00;101073.44;2520106;23;20602;-63
2023/07/30 03:55:48;;;;;;;5.43;3.50;;;;;;;19.64;100.00;100996.72;2519862;23;20210;-63
2023/07/30 03:56:49;;;;;;;7.83;3.40;;;;;;;20.17;100.00;101066.94;2519948;23;20499;-63
2023/07/30 03:57:49;;;;;;;6.13;3.47;;;;;;;20.20;100.00;101065.94;2519626;23;20230;-63
2023/07/30 03:58:50;;;;;;;6.67;3.30;;;;;;;20.20;100.00;101066.72;2519937;23;20158;-64
2023/07/30 03:59:50;;;;;;;6.27;3.20;;;;;;;20.25;100.00;101073.69;2520174;23;20175;-63
2023/07/30 04:00:50;;;;;;;8.07;3.50;;;;;;;20.27;100.00;101071.19;2519861;23;20158;-63
2023/07/30 04:01:51;;;;;;;9.10;3.67;;;;;;;20.31;100.00;101071.75;2520183;23;20547;-64
2023/07/30 04:02:51;;;;;;;8.93;3.57;;;;;;;20.34;100.00;101065.13;2519913;23;20163;-63
2023/07/30 04:03:52;;;;;;;13.30;3.90;;;;;;;20.37;100.00;101061.34;2519971;23;20158;-63
2023/07/30 04:04:52;;;;;;;11.03;4.13;;;;;;;20.38;100.00;101062.91;2520202;23;20162;-63
2023/07/30 04:05:52;;;;;;;7.33;3.80;;;;;;;20.40;100.00;101061.16;2519669;23;20249;-64
2023/07/30 04:06:53;;;;;;;9.57;3.80;;;;;;;20.42;100.00;101067.06;2507480;23;20614;-63
2023/07/30 04:07:53;;;;;;;4.80;3.20;;;;;;;20.46;100.00;101076.06;2507143;23;20657;-64
2023/07/30 04:08:53;;;;;;;8.60;4.20;;;;;;;20.51;100.00;101069.75;2520082;23;20159;-63
2023/07/30 04:09:54;;;;;;;10.40;3.13;;;;;;;20.52;100.00;101067.72;2520245;23;20309;-63
2023/07/30 04:10:54;;;;;;;5.70;3.57;;;;;;;20.55;100.00;101067.50;2519508;23;20155;-63
2023/07/30 04:11:55;;;;;;;4.97;3.40;;;;;;;20.56;100.00;101071.09;2520140;23;20155;-63
2023/07/30 04:12:55;;;;;;;8.00;3.97;;;;;;;20.43;100.00;101045.31;2519985;23;20190;-63
2023/07/30 04:13:55;;;;;;;9.53;3.90;;;;;;;20.59;100.00;101065.28;2520203;23;20220;-64
2023/07/30 04:14:56;;;;;;;9.80;4.00;;;;;;;20.62;100.00;101069.16;2519771;23;20186;-63
2023/07/30 04:15:56;;;;;;;9.63;4.10;;;;;;;20.63;100.00;101065.06;2519632;23;20570;-63
2023/07/30 04:16:57;;;;;;;11.03;4.33;;;;;;;20.67;100.00;101063.56;2519666;23;20186;-64
2023/07/30 04:17:57;;;;;;;11.50;4.00;;;;;;;20.69;100.00;101071.53;2519764;23;20158;-63
2023/07/30 04:18:57;;;;;;;9.17;4.23;;;;;;;20.74;100.00;101065.22;2519824;23;20155;-63
2023/07/30 04:19:58;;;;;;;8.83;4.27;;;;;;;20.77;100.00;101070.63;2520168;23;20155;-64
2023/07/30 04:20:58;;;;;;;4.60;3.47;;;;;;;20.81;100.00;101067.59;2519753;23;20152;-63
2023/07/30 04:21:59;;;;;;;5.73;3.40;;;;;;;20.78;100.00;101058.09;2520128;23;20166;-63
2023/07/30 04:22:59;;;;;;;5.13;3.17;;;;;;;20.85;100.00;101068.19;2519691;23;20226;-63
2023/07/30 04:23:59;;;;;;;6.93;3.70;;;;;;;20.48;100.00;101017.25;2520275;23;20162;-63
2023/07/30 04:25:00;;;;;;;4.97;3.30;;;;;;;20.87;100.00;101072.03;2520088;23;20226;-63
2023/07/30 04:26:00;;;;;;;6.70;3.63;;;;;;;20.90;100.00;101071.09;2520125;23;20154;-64
2023/07/30 04:27:01;;;;;;;6.00;3.57;;;;;;;20.93;100.00;101069.34;2520122;23;20227;-63
2023/07/30 04:28:01;;;;;;;7.07;3.77;;;;;;;20.94;100.00;101066.00;2519422;23;20628;-64
2023/07/30 04:29:02;;;;;;;7.17;4.13;;;;;;;20.96;100.00;101074.75;2520214;23;20147;-63
2023/07/30 04:30:03;;;;;;;6.60;3.57;;;;;;;20.99;100.00;101061.72;2519923;23;20163;-63
2023/07/30 04:31:04;;;;;;;6.43;3.53;;;;;;;21.03;100.00;101065.88;2519663;23;20154;-63
2023/07/30 04:32:05;;;;;;;5.80;3.50;;;;;;;20.98;100.00;101054.56;2520409;23;20387;-63
2023/07/30 04:33:05;;;;;;;6.03;3.67;;;;;;;21.00;100.00;101064.06;2520181;23;20216;-63
2023/07/30 04:34:06;;;;;;;5.47;3.23;;;;;;;20.53;100.00;101012.97;2520040;23;20163;-63
2023/07/30 04:35:06;;;;;;;4.53;3.63;;;;;;;21.04;100.00;101072.28;2519979;23;20151;-64
2023/07/30 04:36:07;;;;;;;6.87;4.13;;;;;;;21.03;100.00;101073.56;2519816;23;20205;-63
2023/07/30 04:37:08;;;;;;;6.57;3.90;;;;;;;21.03;100.00;101077.16;2519795;23;20497;-63
2023/07/30 04:38:08;;;;;;;5.73;3.73;;;;;;;21.06;100.00;101073.34;2519677;23;20147;-63
2023/07/30 04:39:09;;;;;;;5.33;4.37;;;;;;;21.07;100.00;101068.47;2520025;23;20155;-64